Time;durP1;ratioP1;P1;durP2;ratioP2;P2;SDS_P1;SDS_P2;PMS_P1;PMS_P2;Temp;Humidity;BMP_temperature;BMP_pressure;BME280_temperature;BME280_humidity;BME280_pressure;Samples;Min_cycle;Max_cycle;Signal;HPM_P1;HPM_P2
2023/12/19 00:00:34;;;;;;;88.95;53.05;;;2.10;99.90;;;;;;5009401;28;20069;-70
2023/12/19 00:03:02;;;;;;;93.85;53.65;;;1.90;99.90;;;;;;5009816;28;20456;-70
2023/12/19 00:05:29;;;;;;;93.22;51.80;;;1.90;99.90;;;;;;5006607;28;20037;-69
2023/12/19 00:07:57;;;;;;;87.35;49.80;;;2.10;99.90;;;;;;5008956;28;20096;-70
2023/12/19 00:10:24;;;;;;;70.50;43.17;;;2.00;99.90;;;;;;4992769;28;20107;-70
2023/12/19 00:12:51;;;;;;;76.68;44.45;;;2.10;99.90;;;;;;5010480;28;20382;-72
2023/12/19 00:15:22;;;;;;;93.00;50.65;;;2.10;99.90;;;;;;5008730;28;20362;-71
2023/12/19 00:17:49;;;;;;;;;;;2.20;99.90;;;;;;5008221;28;20054;-71
2023/12/19 00:20:17;;;;;;;55.78;34.22;;;2.10;99.90;;;;;;5010083;28;19933;-72
2023/12/19 00:22:44;;;;;;;60.72;36.50;;;2.00;99.90;;;;;;4993556;28;20389;-71
2023/12/19 00:25:11;;;;;;;60.10;33.47;;;1.90;99.90;;;;;;5010070;28;20378;-72
2023/12/19 00:27:39;;;;;;;54.58;34.60;;;2.00;99.90;;;;;;5011052;28;20030;-72
2023/12/19 00:30:06;;;;;;;62.58;36.05;;;1.90;99.90;;;;;;5011467;28;20034;-72
2023/12/19 00:32:34;;;;;;;65.43;37.72;;;1.80;99.90;;;;;;5009026;28;20473;-70
2023/12/19 00:35:01;;;;;;;65.03;36.40;;;2.00;99.90;;;;;;4990855;28;20049;-72
2023/12/19 00:37:29;;;;;;;58.92;34.60;;;2.10;99.90;;;;;;5010216;28;20073;-71
2023/12/19 00:39:56;;;;;;;56.67;33.90;;;2.10;99.90;;;;;;5010930;28;20040;-72
2023/12/19 00:42:23;;;;;;;54.08;34.85;;;2.20;99.90;;;;;;5010256;28;20088;-71
2023/12/19 00:44:51;;;;;;;59.33;35.58;;;2.30;99.90;;;;;;5010139;28;20046;-70
2023/12/19 00:47:18;;;;;;;54.83;35.00;;;2.10;99.90;;;;;;5010361;28;20061;-73
2023/12/19 00:49:46;;;;;;;60.78;36.72;;;2.00;99.90;;;;;;5010716;28;20370;-69
2023/12/19 00:52:13;;;;;;;58.97;37.33;;;2.00;99.90;;;;;;5010594;28;20038;-72
2023/12/19 00:54:40;;;;;;;55.80;34.60;;;2.00;99.90;;;;;;5010193;28;20042;-72
2023/12/19 00:57:08;;;;;;;61.13;37.03;;;1.90;99.90;;;;;;5010937;28;20042;-73
2023/12/19 00:59:35;;;;;;;61.70;36.75;;;2.00;99.90;;;;;;5010037;28;20112;-71
2023/12/19 01:02:02;;;;;;;59.63;35.90;;;2.00;99.90;;;;;;5010630;28;20113;-71
2023/12/19 01:04:30;;;;;;;65.63;36.28;;;2.00;99.90;;;;;;5010064;28;20048;-71
2023/12/19 01:06:58;;;;;;;62.40;37.72;;;2.00;99.90;;;;;;4993065;28;20037;-71
2023/12/19 01:09:25;;;;;;;66.53;39.38;;;2.10;99.90;;;;;;5006500;28;20034;-72
2023/12/19 01:11:52;;;;;;;67.88;38.72;;;1.90;99.90;;;;;;5008953;28;20061;-72
2023/12/19 01:14:20;;;;;;;63.95;39.80;;;2.00;99.90;;;;;;5010126;28;20038;-69
2023/12/19 01:16:47;;;;;;;65.80;39.45;;;1.90;99.90;;;;;;5009667;28;20042;-71
2023/12/19 01:19:14;;;;;;;60.08;38.75;;;1.90;99.90;;;;;;5010227;28;20065;-71
2023/12/19 01:21:42;;;;;;;71.03;41.30;;;2.00;99.90;;;;;;5010277;28;20436;-70
2023/12/19 01:24:09;;;;;;;61.63;40.33;;;2.10;99.90;;;;;;5010046;28;20034;-72
2023/12/19 01:26:36;;;;;;;69.20;40.45;;;2.20;99.90;;;;;;5009828;28;20030;-73
2023/12/19 01:29:04;;;;;;;71.30;41.25;;;2.10;99.90;;;;;;5010391;28;20503;-72
2023/12/19 01:31:31;;;;;;;70.88;40.83;;;2.00;99.90;;;;;;5009718;28;20117;-72
2023/12/19 01:33:59;;;;;;;66.13;41.20;;;2.10;99.90;;;;;;5009775;28;20461;-72
2023/12/19 01:36:26;;;;;;;68.43;40.05;;;2.10;99.90;;;;;;5010122;28;20088;-72
2023/12/19 01:38:54;;;;;;;69.10;40.42;;;2.10;99.90;;;;;;5005692;28;20037;-72
2023/12/19 01:41:24;;;;;;;67.85;38.95;;;1.80;99.90;;;;;;5010134;28;20092;-73
2023/12/19 01:43:57;;;;;;;68.95;39.40;;;1.80;99.90;;;;;;5009323;28;20117;-72
2023/12/19 01:46:26;;;;;;;70.68;40.38;;;1.80;99.90;;;;;;5009912;28;20104;-72
2023/12/19 01:48:54;;;;;;;62.08;36.85;;;1.90;99.90;;;;;;5009358;28;20034;-73
2023/12/19 01:51:22;;;;;;;65.25;38.63;;;1.80;99.90;;;;;;5009760;28;20052;-73
2023/12/19 01:53:49;;;;;;;67.55;37.70;;;1.80;99.90;;;;;;5010008;28;20033;-72
2023/12/19 01:56:19;;;;;;;72.82;38.05;;;1.80;99.90;;;;;;4992562;28;20065;-72
2023/12/19 01:58:47;;;;;;;61.42;38.95;;;1.90;99.90;;;;;;5009754;28;20049;-71
2023/12/19 02:01:16;;;;;;;65.45;40.70;;;1.90;99.90;;;;;;4992546;28;20130;-71
2023/12/19 02:03:46;;;;;;;65.25;40.42;;;1.90;99.90;;;;;;5009310;28;20042;-71
2023/12/19 02:06:14;;;;;;;69.80;40.93;;;2.00;99.90;;;;;;5010170;28;20577;-71
2023/12/19 02:08:41;;;;;;;64.50;40.05;;;1.90;99.90;;;;;;5008105;28;20161;-71
2023/12/19 02:11:09;;;;;;;60.83;39.95;;;1.90;99.90;;;;;;5010148;28;20450;-72
2023/12/19 02:13:38;;;;;;;64.43;38.60;;;1.80;99.90;;;;;;5008978;28;20093;-71
2023/12/19 02:16:06;;;;;;;67.80;42.10;;;1.80;99.90;;;;;;5005925;28;20029;-71
2023/12/19 02:18:33;;;;;;;75.65;46.05;;;1.80;99.90;;;;;;5009100;28;20046;-70
2023/12/19 02:21:00;;;;;;;77.25;45.00;;;1.90;99.90;;;;;;5009948;28;20080;-72
2023/12/19 02:23:28;;;;;;;72.40;43.53;;;1.90;99.90;;;;;;5008979;28;20042;-70
2023/12/19 02:25:55;;;;;;;74.47;45.30;;;2.00;99.90;;;;;;5008074;28;20033;-71
2023/12/19 02:28:23;;;;;;;73.60;43.22;;;1.90;99.90;;;;;;5008941;28;20513;-72
2023/12/19 02:30:51;;;;;;;75.57;43.20;;;1.90;99.90;;;;;;5009790;28;20416;-71
2023/12/19 02:33:18;;;;;;;76.22;44.58;;;1.90;99.90;;;;;;5008837;28;20100;-71
2023/12/19 02:35:45;;;;;;;76.07;45.28;;;1.90;99.90;;;;;;5009159;28;20061;-71
2023/12/19 02:38:13;;;;;;;78.05;43.83;;;2.00;99.90;;;;;;5009436;28;20046;-72
2023/12/19 02:40:41;;;;;;;71.35;44.25;;;1.90;99.90;;;;;;4991560;28;20038;-73
2023/12/19 02:43:09;;;;;;;72.78;43.75;;;1.90;99.90;;;;;;4975414;28;20042;-71
2023/12/19 02:45:36;;;;;;;75.18;44.90;;;1.60;99.90;;;;;;5008686;28;20454;-70
2023/12/19 02:48:04;;;;;;;83.30;44.85;;;1.60;99.90;;;;;;5009368;28;20128;-70
2023/12/19 02:50:31;;;;;;;82.22;44.47;;;1.60;99.90;;;;;;5008922;28;20034;-69
2023/12/19 02:52:58;;;;;;;69.47;43.45;;;1.70;99.90;;;;;;5009046;28;20461;-70
2023/12/19 02:55:26;;;;;;;68.15;40.72;;;1.60;99.90;;;;;;4988381;28;20141;-72
2023/12/19 02:57:53;;;;;;;67.20;42.45;;;1.70;99.90;;;;;;5012931;28;20042;-71
2023/12/19 03:00:20;;;;;;;78.43;43.10;;;1.80;99.90;;;;;;5012624;28;20056;-71
2023/12/19 03:02:48;;;;;;;72.50;45.38;;;1.80;99.90;;;;;;5012427;28;20026;-74
2023/12/19 03:05:15;;;;;;;79.55;47.70;;;1.80;99.90;;;;;;5012536;28;20053;-71
2023/12/19 03:07:43;;;;;;;94.47;51.72;;;1.70;99.90;;;;;;5012511;28;20045;-69
2023/12/19 03:10:10;;;;;;;84.75;51.72;;;1.40;99.90;;;;;;5012277;28;20505;-70
2023/12/19 03:12:37;;;;;;;91.18;53.65;;;1.40;99.90;;;;;;5012406;28;20444;-70
2023/12/19 03:15:05;;;;;;;91.32;51.33;;;1.50;99.90;;;;;;5012205;28;20433;-72
2023/12/19 03:17:33;;;;;;;91.55;52.17;;;1.50;99.90;;;;;;5012160;28;20084;-70
2023/12/19 03:20:00;;;;;;;89.72;51.83;;;1.40;99.90;;;;;;5007229;28;20041;-70
2023/12/19 03:22:27;;;;;;;91.93;51.40;;;1.40;99.90;;;;;;5012198;28;20037;-70
2023/12/19 03:24:57;;;;;;;88.97;51.75;;;1.50;99.90;;;;;;5011926;28;20048;-71
2023/12/19 03:27:25;;;;;;;90.30;51.83;;;1.30;99.90;;;;;;5012076;28;20034;-69
2023/12/19 03:29:53;;;;;;;92.05;53.72;;;1.40;99.90;;;;;;5011986;28;20141;-72
2023/12/19 03:32:20;;;;;;;89.55;53.22;;;1.40;99.90;;;;;;5011868;28;20121;-71
2023/12/19 03:34:47;;;;;;;89.78;53.85;;;1.30;99.90;;;;;;5011941;28;20045;-70
2023/12/19 03:37:15;;;;;;;89.03;54.13;;;1.30;99.90;;;;;;4994298;28;20038;-72
2023/12/19 03:39:42;;;;;;;92.28;54.40;;;1.30;99.90;;;;;;5011740;28;20046;-71
2023/12/19 03:42:09;;;;;;;95.05;53.55;;;1.40;99.90;;;;;;5011480;28;20037;-71
2023/12/19 03:44:42;;;;;;;94.88;55.05;;;1.30;99.90;;;;;;4975417;28;20077;-72
2023/12/19 03:47:13;;;;;;;92.45;55.33;;;1.10;99.90;;;;;;5011738;28;20042;-70
2023/12/19 03:49:41;;;;;;;100.22;53.78;;;1.30;99.90;;;;;;5011362;28;20046;-70
2023/12/19 03:52:09;;;;;;;82.97;52.83;;;1.30;99.90;;;;;;5012237;28;20058;-70
2023/12/19 03:54:36;;;;;;;95.97;54.13;;;1.40;99.90;;;;;;5011147;28;20036;-71
2023/12/19 03:57:04;;;;;;;95.80;54.95;;;1.50;99.90;;;;;;5011897;28;20042;-71
2023/12/19 03:59:32;;;;;;;96.15;56.03;;;1.40;99.90;;;;;;5011220;28;20038;-71
2023/12/19 04:01:59;;;;;;;94.18;53.75;;;1.30;99.90;;;;;;5011573;28;20037;-71
2023/12/19 04:04:27;;;;;;;100.32;55.35;;;1.20;99.90;;;;;;5010539;28;20034;-71
2023/12/19 04:06:54;;;;;;;95.10;54.35;;;1.30;99.90;;;;;;5011788;28;20042;-72
2023/12/19 04:09:22;;;;;;;94.93;52.70;;;1.30;99.90;;;;;;4989732;28;20048;-71
2023/12/19 04:11:50;;;;;;;83.15;51.50;;;1.40;99.90;;;;;;5011753;28;20053;-70
2023/12/19 04:14:17;;;;;;;79.85;47.08;;;1.50;99.90;;;;;;5010236;28;20409;-72
2023/12/19 04:16:44;;;;;;;79.45;45.63;;;1.50;99.90;;;;;;5010224;28;20045;-72
2023/12/19 04:19:12;;;;;;;71.57;42.88;;;1.30;99.90;;;;;;5011434;28;20104;-71
2023/12/19 04:21:41;;;;;;;69.68;44.35;;;1.20;99.90;;;;;;5010783;28;20838;-69
2023/12/19 04:24:10;;;;;;;78.70;45.40;;;1.10;99.90;;;;;;5011054;28;20038;-70
2023/12/19 04:26:37;;;;;;;72.20;41.63;;;0.90;99.90;;;;;;5010735;28;20026;-71
2023/12/19 04:29:04;;;;;;;74.57;45.08;;;0.80;99.90;;;;;;5011153;28;20117;-71
2023/12/19 04:31:32;;;;;;;70.82;42.72;;;0.70;99.90;;;;;;5010245;28;20037;-70
2023/12/19 04:34:00;;;;;;;74.55;43.97;;;0.70;99.90;;;;;;5006116;28;20076;-71
2023/12/19 04:36:30;;;;;;;75.75;44.80;;;0.70;99.90;;;;;;5006727;28;20532;-69
2023/12/19 04:38:57;;;;;;;68.82;40.75;;;0.90;99.90;;;;;;5010108;28;20501;-74
2023/12/19 04:41:25;;;;;;;61.17;39.53;;;1.00;99.90;;;;;;5010979;28;20037;-69
2023/12/19 04:43:52;;;;;;;83.45;45.25;;;1.10;99.90;;;;;;5010206;28;20129;-70
2023/12/19 04:46:20;;;;;;;85.75;47.78;;;1.10;99.90;;;;;;5010546;28;20073;-70
2023/12/19 04:48:47;;;;;;;80.95;49.78;;;1.10;99.90;;;;;;5010214;28;20103;-69
2023/12/19 04:51:22;;;;;;;75.75;47.75;;;1.10;99.90;;;;;;5010849;28;20026;-69
2023/12/19 04:53:49;;;;;;;78.28;46.15;;;1.00;99.90;;;;;;5010730;28;20397;-70
2023/12/19 04:56:17;;;;;;;73.75;44.80;;;1.00;99.90;;;;;;5010286;28;20033;-70
2023/12/19 04:58:48;;;;;;;85.10;48.17;;;0.90;99.90;;;;;;5010212;28;20117;-72
2023/12/19 05:01:16;;;;;;;83.05;50.03;;;0.80;99.90;;;;;;4991597;28;20111;-69
2023/12/19 05:03:44;;;;;;;65.65;43.85;;;0.70;99.90;;;;;;5009478;28;20044;-73
2023/12/19 05:06:17;;;;;;;64.20;38.83;;;0.60;99.90;;;;;;5010695;28;20061;-71
2023/12/19 05:08:45;;;;;;;56.17;36.40;;;0.50;99.90;;;;;;5010078;28;20041;-72
2023/12/19 05:11:13;;;;;;;60.00;35.25;;;0.40;99.90;;;;;;5010689;28;20068;-71
2023/12/19 05:13:40;;;;;;;56.72;36.63;;;0.60;99.90;;;;;;5009067;28;20049;-71
2023/12/19 05:16:15;;;;;;;54.97;33.72;;;0.70;99.90;;;;;;5010395;28;20108;-72
2023/12/19 05:18:43;;;;;;;51.08;35.00;;;0.70;99.90;;;;;;5009542;28;20034;-72
2023/12/19 05:21:12;;;;;;;53.70;32.17;;;0.70;99.90;;;;;;5010035;28;20056;-73
2023/12/19 05:23:40;;;;;;;58.53;34.15;;;0.60;99.90;;;;;;5009523;28;20114;-71
2023/12/19 05:26:08;;;;;;;50.40;32.67;;;0.40;99.90;;;;;;5010207;28;20500;-71
2023/12/19 05:28:39;;;;;;;53.15;32.78;;;0.30;99.90;;;;;;5009307;28;20096;-71
2023/12/19 05:31:08;;;;;;;48.30;30.95;;;0.30;99.90;;;;;;4990821;28;20069;-72
2023/12/19 05:33:35;;;;;;;53.28;34.67;;;0.30;99.90;;;;;;5009404;28;20025;-72
2023/12/19 05:36:03;;;;;;;52.80;34.95;;;0.30;99.90;;;;;;5009684;28;20052;-72
2023/12/19 05:38:32;;;;;;;59.50;35.85;;;0.40;99.90;;;;;;5009222;28;20030;-72
2023/12/19 05:41:00;;;;;;;56.97;34.72;;;0.40;99.90;;;;;;5008226;28;20050;-71
2023/12/19 05:43:27;;;;;;;59.33;34.70;;;0.50;99.90;;;;;;5009832;28;20040;-73
2023/12/19 05:45:55;;;;;;;58.17;35.47;;;0.50;99.90;;;;;;5000792;28;20046;-71
2023/12/19 05:48:22;;;;;;;52.92;34.70;;;0.20;99.90;;;;;;5009386;28;20069;-71
2023/12/19 05:50:51;;;;;;;55.72;33.60;;;0.40;99.90;;;;;;5008809;28;20038;-70
2023/12/19 05:53:19;;;;;;;49.97;33.15;;;0.40;99.90;;;;;;5008381;28;20041;-69
2023/12/19 05:55:47;;;;;;;54.75;35.63;;;0.40;99.90;;;;;;5010025;28;20366;-71
2023/12/19 05:58:14;;;;;;;51.97;33.67;;;0.30;99.90;;;;;;5009668;28;20488;-72
2023/12/19 06:00:44;;;;;;;57.08;34.70;;;0.40;99.90;;;;;;5008903;28;20053;-73
2023/12/19 06:03:12;;;;;;;;;;;0.30;99.90;;;;;;5009343;28;20108;-72
2023/12/19 06:05:39;;;;;;;98.95;53.40;;;0.50;99.90;;;;;;5009343;28;20272;-72
2023/12/19 06:08:07;;;;;;;200.45;96.50;;;0.50;99.90;;;;;;5009440;28;20538;-72
2023/12/19 06:10:35;;;;;;;81.53;47.60;;;0.80;99.90;;;;;;5008545;28;20053;-71
2023/12/19 06:13:02;;;;;;;356.10;162.18;;;0.70;99.90;;;;;;5009251;28;20481;-70
2023/12/19 06:15:30;;;;;;;87.78;52.55;;;0.90;99.90;;;;;;5007727;28;20037;-70
2023/12/19 06:17:57;;;;;;;74.95;45.95;;;0.80;99.90;;;;;;5009438;28;20058;-70
2023/12/19 06:20:25;;;;;;;65.90;40.88;;;0.80;99.90;;;;;;5008649;28;20042;-71
2023/12/19 06:22:52;;;;;;;69.07;39.65;;;0.70;99.90;;;;;;5009356;28;20038;-71
2023/12/19 06:25:20;;;;;;;65.90;40.22;;;0.70;99.90;;;;;;5007866;28;20102;-72
2023/12/19 06:27:47;;;;;;;67.30;39.38;;;0.90;99.90;;;;;;5009473;28;20026;-71
2023/12/19 06:30:15;;;;;;;64.15;39.92;;;0.70;99.90;;;;;;5007399;28;20042;-72
2023/12/19 06:32:54;;;;;;;63.47;38.28;;;0.70;99.90;;;;;;5012461;28;20054;-70
2023/12/19 06:35:23;;;;;;;64.30;39.85;;;0.60;99.90;;;;;;5011887;28;20041;-69
2023/12/19 06:37:51;;;;;;;65.75;38.42;;;0.60;99.90;;;;;;5012428;28;20057;-69
2023/12/19 06:40:18;;;;;;;69.57;39.03;;;0.80;99.90;;;;;;5012182;28;20045;-71
2023/12/19 06:42:47;;;;;;;64.82;37.75;;;0.90;99.90;;;;;;5005124;28;20053;-73
2023/12/19 06:45:16;;;;;;;75.05;43.75;;;1.00;99.90;;;;;;5010818;28;20482;-72
2023/12/19 06:47:45;;;;;;;69.68;39.47;;;1.30;99.90;;;;;;5027770;28;20378;-70
2023/12/19 06:50:12;;;;;;;66.18;38.75;;;1.40;99.90;;;;;;5027635;28;20038;-70
2023/12/19 06:52:39;;;;;;;65.70;38.70;;;1.50;99.90;;;;;;5012511;28;20117;-69
2023/12/19 06:55:11;;;;;;;70.57;39.42;;;1.40;99.90;;;;;;5012131;28;20029;-70
2023/12/19 06:57:39;;;;;;;59.85;37.67;;;1.50;99.90;;;;;;5011183;28;20045;-71
2023/12/19 07:00:07;;;;;;;64.80;37.70;;;1.60;99.90;;;;;;5011556;28;20045;-69
2023/12/19 07:02:36;;;;;;;61.60;38.58;;;1.60;99.90;;;;;;5012338;28;20057;-69
2023/12/19 07:05:04;;;;;;;60.22;37.58;;;1.80;99.90;;;;;;5011310;28;20112;-71
2023/12/19 07:07:32;;;;;;;63.10;37.55;;;1.90;99.90;;;;;;5026232;28;20037;-70
2023/12/19 07:10:01;;;;;;;59.10;37.78;;;2.10;99.90;;;;;;5011809;28;20053;-72
2023/12/19 07:12:29;;;;;;;63.20;37.40;;;1.90;99.90;;;;;;5010296;28;20061;-71
2023/12/19 07:14:56;;;;;;;66.18;38.13;;;2.00;99.90;;;;;;5011070;28;20037;-71
2023/12/19 07:17:23;;;;;;;59.55;36.92;;;2.10;99.90;;;;;;5010113;28;20050;-73
2023/12/19 07:19:51;;;;;;;56.30;34.90;;;2.30;99.90;;;;;;5011296;28;20037;-73
2023/12/19 07:22:19;;;;;;;59.95;34.65;;;2.40;99.90;;;;;;5010083;28;20030;-71
2023/12/19 07:24:46;;;;;;;52.22;34.85;;;2.40;99.90;;;;;;5010181;28;20045;-71
2023/12/19 07:27:13;;;;;;;61.20;34.70;;;2.60;99.90;;;;;;5010696;28;20057;-72
2023/12/19 07:29:41;;;;;;;51.70;32.45;;;2.70;99.90;;;;;;5011852;28;20057;-71
2023/12/19 07:32:08;;;;;;;53.35;31.73;;;2.80;99.90;;;;;;5010822;28;20056;-69
2023/12/19 07:34:36;;;;;;;53.75;32.90;;;2.90;99.90;;;;;;5011902;28;20076;-71
2023/12/19 07:37:03;;;;;;;54.92;35.38;;;2.90;99.90;;;;;;5012563;28;20092;-70
2023/12/19 07:39:31;;;;;;;55.83;34.65;;;3.00;99.90;;;;;;5008003;28;20104;-70
2023/12/19 07:41:58;;;;;;;54.95;34.75;;;3.00;99.90;;;;;;5011584;28;20049;-71
2023/12/19 07:44:26;;;;;;;59.88;34.15;;;3.10;99.90;;;;;;5011735;28;20492;-69
2023/12/19 07:46:53;;;;;;;61.30;34.55;;;3.20;99.90;;;;;;5012065;28;20038;-71
2023/12/19 07:49:20;;;;;;;59.33;35.72;;;3.20;99.90;;;;;;4993124;28;20052;-71
2023/12/19 07:51:48;;;;;;;56.85;35.30;;;3.20;99.90;;;;;;5012199;28;20045;-70
2023/12/19 07:54:16;;;;;;;56.10;34.65;;;3.20;99.90;;;;;;4991120;28;20535;-72
2023/12/19 07:56:44;;;;;;;53.90;34.15;;;3.30;99.90;;;;;;4994185;28;20157;-70
2023/12/19 07:59:11;;;;;;;55.28;34.95;;;3.20;99.90;;;;;;4973071;28;20045;-70
2023/12/19 08:01:40;;;;;;;51.88;33.63;;;3.10;99.90;;;;;;5011162;28;20040;-71
2023/12/19 08:04:08;;;;;;;66.05;34.83;;;3.20;99.90;;;;;;5006988;28;20034;-70
2023/12/19 08:06:36;;;;;;;48.10;32.05;;;3.40;99.90;;;;;;5008311;28;20048;-72
2023/12/19 08:09:04;;;;;;;45.13;31.55;;;3.60;99.90;;;;;;5008793;28;20117;-71
2023/12/19 08:11:31;;;;;;;50.85;30.42;;;3.80;99.90;;;;;;4993895;28;20030;-70
2023/12/19 08:13:59;;;;;;;58.17;32.75;;;3.40;99.90;;;;;;5010489;28;20040;-71
2023/12/19 08:16:26;;;;;;;53.10;31.92;;;3.50;99.90;;;;;;4993611;28;20046;-71
2023/12/19 08:18:54;;;;;;;48.13;32.05;;;3.50;99.90;;;;;;5010645;28;20048;-71
2023/12/19 08:21:21;;;;;;;52.83;33.85;;;3.60;99.90;;;;;;5010690;28;20121;-71
2023/12/19 08:23:49;;;;;;;52.22;32.85;;;3.60;99.90;;;;;;5010685;28;20091;-72
2023/12/19 08:26:16;;;;;;;53.65;34.80;;;3.60;99.90;;;;;;5011193;28;20072;-73
2023/12/19 08:28:43;;;;;;;64.95;37.42;;;3.70;99.90;;;;;;5010060;28;20041;-70
2023/12/19 08:31:11;;;;;;;62.63;40.03;;;3.90;99.90;;;;;;5009263;28;20033;-71
2023/12/19 08:33:41;;;;;;;70.82;41.78;;;4.10;99.90;;;;;;5005977;28;20094;-71
2023/12/19 08:36:09;;;;;;;71.22;43.75;;;4.20;99.90;;;;;;5009534;28;20103;-71
2023/12/19 08:38:56;;;;;;;65.93;42.08;;;4.20;99.90;;;;;;5008513;28;20041;-70
2023/12/19 08:41:24;;;;;;;74.68;44.05;;;4.30;99.90;;;;;;5009148;28;20099;-71
2023/12/19 08:43:52;;;;;;;66.53;41.67;;;4.40;99.90;;;;;;5010990;28;20046;-71
2023/12/19 08:46:19;;;;;;;53.33;35.30;;;4.70;99.90;;;;;;5010667;28;20041;-71
2023/12/19 08:48:49;;;;;;;57.25;36.42;;;4.60;99.90;;;;;;4992334;28;20516;-71
2023/12/19 08:51:17;;;;;;;52.30;35.22;;;4.60;99.90;;;;;;5009142;28;20053;-69
2023/12/19 08:53:45;;;;;;;59.85;35.55;;;4.90;99.90;;;;;;5009128;28;20042;-70
2023/12/19 08:56:12;;;;;;;59.67;36.08;;;5.20;99.90;;;;;;5008078;28;20479;-72
2023/12/19 08:58:39;;;;;;;58.33;35.92;;;5.40;99.90;;;;;;5010060;28;20030;-73
2023/12/19 09:01:06;;;;;;;63.75;37.30;;;5.40;99.90;;;;;;5009813;28;20051;-72
2023/12/19 09:03:34;;;;;;;60.95;37.10;;;5.50;99.90;;;;;;5009971;28;20034;-72
2023/12/19 09:06:02;;;;;;;60.35;37.92;;;5.60;99.90;;;;;;5009560;28;20477;-70
2023/12/19 09:08:29;;;;;;;64.00;39.10;;;5.90;99.90;;;;;;5011129;28;20460;-70
2023/12/19 09:10:56;;;;;;;71.50;45.05;;;6.00;99.90;;;;;;5010225;28;20037;-71
2023/12/19 09:13:23;;;;;;;78.35;44.78;;;6.20;99.90;;;;;;5009784;28;20088;-72
2023/12/19 09:15:51;;;;;;;69.10;40.55;;;6.10;99.90;;;;;;5009444;28;20549;-71
2023/12/19 09:18:23;;;;;;;64.72;38.40;;;6.30;99.90;;;;;;4992496;28;20536;-69
2023/12/19 09:20:52;;;;;;;61.65;39.80;;;6.40;99.90;;;;;;5008751;28;20069;-72
2023/12/19 09:23:19;;;;;;;73.05;40.97;;;6.10;99.90;;;;;;5010295;28;20026;-72
2023/12/19 09:25:46;;;;;;;73.35;41.35;;;6.00;99.90;;;;;;4991873;28;20442;-71
2023/12/19 09:28:14;;;;;;;63.95;41.28;;;6.10;99.90;;;;;;5009518;28;20048;-70
2023/12/19 09:30:42;;;;;;;64.93;40.28;;;6.40;99.90;;;;;;5009263;28;20036;-70
2023/12/19 09:33:09;;;;;;;69.50;39.85;;;6.80;99.90;;;;;;5008998;28;20034;-70
2023/12/19 09:35:37;;;;;;;67.03;39.22;;;7.10;99.90;;;;;;5009464;28;20520;-71
2023/12/19 09:38:05;;;;;;;64.43;37.80;;;6.60;99.90;;;;;;5008834;28;20037;-70
2023/12/19 09:40:34;;;;;;;76.03;40.33;;;6.70;99.90;;;;;;4992152;28;20417;-70
2023/12/19 09:43:02;;;;;;;72.38;40.20;;;7.00;99.90;;;;;;5008633;28;20447;-71
2023/12/19 09:45:30;;;;;;;67.32;39.90;;;7.50;99.90;;;;;;5009231;28;20058;-70
2023/12/19 09:48:02;;;;;;;61.13;37.75;;;7.60;99.90;;;;;;5009801;28;20038;-69
2023/12/19 09:50:32;;;;;;;60.58;36.33;;;7.80;99.50;;;;;;5009321;28;20042;-71
2023/12/19 09:53:00;;;;;;;60.63;36.55;;;7.80;98.90;;;;;;5009808;28;20030;-73
2023/12/19 09:55:31;;;;;;;51.75;31.25;;;7.90;99.00;;;;;;5009581;28;20049;-70
2023/12/19 09:58:00;;;;;;;54.55;31.70;;;8.10;98.70;;;;;;5009634;28;20100;-68
2023/12/19 10:00:32;;;;;;;53.20;33.90;;;8.30;98.10;;;;;;4992135;28;20145;-71
2023/12/19 10:03:00;;;;;;;56.95;32.95;;;8.10;97.40;;;;;;5009632;28;20056;-71
2023/12/19 10:05:27;;;;;;;51.30;32.72;;;8.20;97.80;;;;;;5009691;28;20077;-70
2023/12/19 10:07:58;;;;;;;52.13;33.58;;;8.10;97.90;;;;;;5013060;28;20080;-71
2023/12/19 10:10:53;;;;;;;54.38;34.33;;;8.10;98.00;;;;;;5013212;28;20412;-73
2023/12/19 10:13:31;;;;;;;55.00;31.85;;;8.60;97.30;;;;;;5013196;28;20396;-74
2023/12/19 10:16:00;;;;;;;59.58;33.67;;;8.70;97.10;;;;;;5013137;28;20029;-74
2023/12/19 10:18:54;;;;;;;56.70;34.80;;;8.70;96.80;;;;;;4996493;28;20384;-73
2023/12/19 10:21:24;;;;;;;54.38;34.05;;;8.80;96.40;;;;;;5013402;28;20389;-69
2023/12/19 10:23:52;;;;;;;58.00;34.00;;;8.90;96.40;;;;;;5012902;28;20022;-70
2023/12/19 10:26:28;;;;;;;58.47;34.60;;;9.10;96.40;;;;;;5013340;28;20038;-72
2023/12/19 10:28:57;;;;;;;55.03;33.55;;;9.20;95.90;;;;;;5011956;28;20025;-72
2023/12/19 10:31:24;;;;;;;62.20;35.17;;;9.20;95.80;;;;;;5011928;28;20061;-70
2023/12/19 10:33:56;;;;;;;58.22;34.33;;;9.30;95.70;;;;;;4995943;28;20480;-71
2023/12/19 10:36:32;;;;;;;60.53;35.42;;;9.40;95.70;;;;;;5012000;28;20042;-71
2023/12/19 10:39:01;;;;;;;62.15;35.05;;;9.80;95.20;;;;;;5013157;28;20555;-72
2023/12/19 10:41:30;;;;;;;53.88;34.45;;;9.90;94.70;;;;;;5012869;28;20092;-72
2023/12/19 10:43:59;;;;;;;54.95;35.40;;;10.30;94.40;;;;;;5012776;28;20038;-72
2023/12/19 10:46:28;;;;;;;55.85;35.55;;;10.50;93.80;;;;;;4986664;28;20519;-71
2023/12/19 10:48:58;;;;;;;57.17;34.90;;;10.60;93.50;;;;;;5011782;28;20033;-71
2023/12/19 10:51:42;;;;;;;53.40;34.72;;;10.60;93.40;;;;;;5010480;28;20060;-67
2023/12/19 10:54:12;;;;;;;61.50;36.30;;;10.80;93.00;;;;;;5011374;28;20033;-70
2023/12/19 10:57:15;;;;;;;52.67;33.70;;;10.70;92.70;;;;;;5012594;28;20034;-71
2023/12/19 11:00:10;;;;;;;52.92;33.30;;;10.90;92.60;;;;;;4982623;28;20038;-69
2023/12/19 11:02:57;;;;;;;52.08;32.92;;;14.60;90.70;;;;;;5008307;28;20045;-72
2023/12/19 11:05:41;;;;;;;50.80;31.23;;;19.00;74.40;;;;;;5007936;28;20061;-71
2023/12/19 11:08:15;;;;;;;46.83;30.85;;;20.70;65.60;;;;;;5010577;28;20069;-70
2023/12/19 11:10:59;;;;;;;45.78;31.60;;;20.90;61.20;;;;;;4991411;28;20026;-69
2023/12/19 11:13:26;;;;;;;47.80;31.38;;;21.50;60.90;;;;;;5010302;28;20037;-69
2023/12/19 11:16:02;;;;;;;46.97;32.67;;;21.80;59.70;;;;;;5010767;28;20853;-71
2023/12/19 11:18:46;;;;;;;49.85;33.53;;;22.70;57.70;;;;;;5010813;28;20042;-72
2023/12/19 11:21:54;;;;;;;46.40;33.55;;;23.10;55.40;;;;;;5012198;28;20029;-71
2023/12/19 11:24:30;;;;;;;48.03;33.88;;;23.70;54.90;;;;;;4959498;28;20066;-72
2023/12/19 11:27:14;;;;;;;45.13;33.90;;;24.40;53.20;;;;;;5012012;28;20044;-70
2023/12/19 11:29:47;;;;;;;49.53;35.03;;;24.90;52.80;;;;;;5011829;28;20034;-70
2023/12/19 11:32:26;;;;;;;46.78;36.03;;;25.10;51.90;;;;;;5012325;28;20082;-72
2023/12/19 11:35:12;;;;;;;44.78;34.60;;;24.40;50.70;;;;;;5012484;28;20479;-72
2023/12/19 11:37:41;;;;;;;48.67;34.08;;;24.10;51.80;;;;;;5009956;28;20032;-73
2023/12/19 11:40:09;;;;;;;47.50;36.50;;;21.20;54.00;;;;;;5008513;28;20073;-71
2023/12/19 11:42:39;;;;;;;44.10;33.95;;;17.60;59.40;;;;;;5010947;28;20030;-72
2023/12/19 11:45:17;;;;;;;54.75;37.05;;;16.00;63.60;;;;;;5008076;28;20121;-73
2023/12/19 11:47:45;;;;;;;48.20;34.55;;;15.20;66.70;;;;;;4970572;28;20563;-71
2023/12/19 11:50:38;;;;;;;52.83;32.33;;;15.20;67.50;;;;;;5010479;28;20056;-72
2023/12/19 11:53:06;;;;;;;44.20;31.13;;;15.10;67.70;;;;;;5011417;28;20030;-72
2023/12/19 11:55:34;;;;;;;45.03;31.85;;;15.20;68.80;;;;;;5011694;28;20083;-73
2023/12/19 11:58:12;;;;;;;45.42;29.30;;;15.30;67.20;;;;;;5011199;28;20045;-73
2023/12/19 12:00:40;;;;;;;43.08;28.48;;;15.60;67.50;;;;;;5007520;28;20080;-72
2023/12/19 12:03:12;;;;;;;42.10;28.63;;;15.90;67.50;;;;;;5008222;28;20033;-72
2023/12/19 12:05:40;;;;;;;41.67;28.58;;;15.90;66.00;;;;;;5007667;28;20046;-73
2023/12/19 12:08:13;;;;;;;41.22;28.15;;;18.00;65.20;;;;;;5011701;28;20033;-73
2023/12/19 12:10:42;;;;;;;38.30;27.20;;;21.50;59.20;;;;;;5008535;28;20037;-73
2023/12/19 12:13:09;;;;;;;45.63;28.95;;;22.10;55.90;;;;;;5010400;28;20107;-71
2023/12/19 12:15:37;;;;;;;44.78;30.23;;;23.80;53.40;;;;;;5009321;28;20461;-76
2023/12/19 12:18:06;;;;;;;45.42;30.65;;;24.30;52.40;;;;;;5011434;28;20049;-77
2023/12/19 12:20:34;;;;;;;45.47;30.57;;;23.60;52.10;;;;;;5010993;28;20201;-77
2023/12/19 12:23:03;;;;;;;40.50;28.38;;;24.60;51.80;;;;;;5011390;28;20030;-77
2023/12/19 12:25:31;;;;;;;38.03;25.90;;;23.80;51.00;;;;;;5011830;28;20059;-77
2023/12/19 12:28:07;;;;;;;36.17;27.23;;;23.50;51.60;;;;;;4990371;28;20373;-77
2023/12/19 12:30:35;;;;;;;45.47;29.60;;;23.70;50.90;;;;;;4993586;28;20461;-77
2023/12/19 12:33:06;;;;;;;42.65;30.42;;;23.60;51.70;;;;;;5009468;28;20421;-77
2023/12/19 12:35:35;;;;;;;49.25;34.05;;;24.10;50.50;;;;;;5009984;28;20125;-76
2023/12/19 12:38:10;;;;;;;45.38;31.38;;;23.60;50.70;;;;;;5010575;28;20042;-76
2023/12/19 12:40:59;;;;;;;48.15;32.78;;;23.20;51.30;;;;;;4989440;28;20424;-78
2023/12/19 12:43:39;;;;;;;48.00;32.25;;;23.50;51.20;;;;;;5010667;28;20088;-77
2023/12/19 12:46:16;;;;;;;46.97;35.40;;;25.20;50.20;;;;;;5007090;28;20042;-78